Time;durP1;ratioP1;P1;durP2;ratioP2;P2;SDS_P1;SDS_P2;PMS_P1;PMS_P2;Temp;Humidity;BMP_temperature;BMP_pressure;BME280_temperature;BME280_humidity;BME280_pressure;Samples;Min_cycle;Max_cycle;Signal;HPM_P1;HPM_P2
2021/01/15 00:00:57;;;;;;;12.48;11.48;;;-1.00;77.10;;;;;;5161741;28;20733;-74
2021/01/15 00:03:36;;;;;;;12.90;11.80;;;-1.00;77.70;;;;;;5161563;28;20038;-73
2021/01/15 00:06:07;;;;;;;11.75;10.85;;;-1.00;77.20;;;;;;5166257;28;20756;-74
2021/01/15 00:08:40;;;;;;;12.43;11.43;;;-1.00;77.20;;;;;;5165590;28;20676;-72
2021/01/15 00:11:24;;;;;;;13.27;12.18;;;-1.00;77.20;;;;;;5152254;28;20074;-73
2021/01/15 00:13:57;;;;;;;12.90;11.90;;;-1.00;77.20;;;;;;5162202;28;20594;-73
2021/01/15 00:16:33;;;;;;;12.85;11.75;;;-1.00;77.10;;;;;;5162594;28;20148;-73
2021/01/15 00:19:04;;;;;;;13.20;12.20;;;-1.00;77.10;;;;;;5164592;28;20056;-74
2021/01/15 00:21:36;;;;;;;13.30;12.20;;;-1.00;76.80;;;;;;5159359;28;20069;-73
2021/01/15 00:24:08;;;;;;;12.48;11.48;;;-1.10;76.90;;;;;;5146197;28;20526;-74
2021/01/15 00:26:40;;;;;;;13.00;11.90;;;-1.10;76.90;;;;;;5166852;28;20042;-74
2021/01/15 00:29:16;;;;;;;12.73;11.63;;;-1.10;76.80;;;;;;5162460;28;20094;-74
2021/01/15 00:31:48;;;;;;;12.98;11.88;;;-1.10;77.00;;;;;;5165426;28;20042;-74
2021/01/15 00:34:19;;;;;;;12.63;11.63;;;-1.10;77.10;;;;;;5163632;28;20484;-74
2021/01/15 00:36:51;;;;;;;12.70;11.70;;;-1.10;77.10;;;;;;5160631;28;20104;-74
2021/01/15 00:39:22;;;;;;;12.73;11.70;;;-1.10;77.00;;;;;;5164556;28;20045;-74
2021/01/15 00:41:54;;;;;;;12.85;11.77;;;-1.10;77.30;;;;;;5165088;28;20117;-74
2021/01/15 00:44:25;;;;;;;12.77;11.77;;;-1.10;77.30;;;;;;5161016;28;20053;-74
2021/01/15 00:46:57;;;;;;;12.60;11.52;;;-1.10;77.30;;;;;;5162452;28;20116;-74
2021/01/15 00:49:28;;;;;;;12.43;11.32;;;-1.10;77.10;;;;;;5147441;28;20046;-74
2021/01/15 00:52:00;;;;;;;12.30;11.27;;;-1.10;77.20;;;;;;5160195;28;20042;-74
2021/01/15 00:54:34;;;;;;;12.68;11.68;;;-1.10;77.40;;;;;;5139084;28;20574;-74
2021/01/15 00:57:06;;;;;;;12.43;11.43;;;-1.10;77.80;;;;;;5161199;28;20668;-74
2021/01/15 00:59:38;;;;;;;12.70;11.50;;;-1.10;77.10;;;;;;5162970;28;20053;-73
2021/01/15 01:02:23;;;;;;;13.13;11.95;;;-1.10;77.00;;;;;;5160792;28;20150;-73
2021/01/15 01:04:55;;;;;;;12.20;11.20;;;-1.10;77.10;;;;;;5148845;28;20050;-73
2021/01/15 01:07:26;;;;;;;12.60;11.50;;;-1.10;77.10;;;;;;5160462;28;20287;-73
2021/01/15 01:09:58;;;;;;;12.40;11.35;;;-1.10;77.10;;;;;;5161668;28;20402;-73
2021/01/15 01:12:30;;;;;;;12.30;11.30;;;-1.10;77.20;;;;;;5163544;28;20587;-73
2021/01/15 01:15:01;;;;;;;12.82;11.73;;;-1.10;77.10;;;;;;5162970;28;20532;-73
2021/01/15 01:17:33;;;;;;;12.15;11.15;;;-1.20;77.00;;;;;;5158692;28;20144;-73
2021/01/15 01:20:06;;;;;;;11.98;10.98;;;-1.10;77.00;;;;;;5164192;28;20034;-74
2021/01/15 01:22:38;;;;;;;13.13;12.02;;;-1.10;76.70;;;;;;5162319;28;20042;-73
2021/01/15 01:25:10;;;;;;;12.70;11.70;;;-1.20;76.80;;;;;;5131830;28;20674;-73
2021/01/15 01:27:42;;;;;;;12.45;11.45;;;-1.20;77.00;;;;;;5163231;28;20750;-73
2021/01/15 01:30:14;;;;;;;11.90;10.90;;;-1.20;77.10;;;;;;5162519;28;20116;-73
2021/01/15 01:32:45;;;;;;;11.98;10.88;;;-1.20;76.80;;;;;;5160857;28;20100;-73
2021/01/15 01:35:17;;;;;;;13.55;12.35;;;-1.20;77.00;;;;;;5156833;28;20077;-74
2021/01/15 01:37:48;;;;;;;12.35;11.20;;;-1.20;76.80;;;;;;5167465;28;20042;-73
2021/01/15 01:40:20;;;;;;;12.10;10.98;;;-1.20;77.00;;;;;;5163639;28;20045;-73
2021/01/15 01:42:52;;;;;;;12.20;11.20;;;-1.20;76.80;;;;;;5160054;28;21122;-73
2021/01/15 01:45:23;;;;;;;12.63;11.52;;;-1.20;77.60;;;;;;5164320;28;20095;-73
2021/01/15 01:47:57;;;;;;;12.57;11.48;;;-1.20;77.00;;;;;;5157396;28;20042;-72
2021/01/15 01:50:30;;;;;;;12.23;11.23;;;-1.20;77.10;;;;;;5164555;28;20049;-73
2021/01/15 01:53:04;;;;;;;12.25;11.25;;;-1.20;77.00;;;;;;5160706;28;20135;-73
2021/01/15 01:55:37;;;;;;;13.13;12.13;;;-1.20;76.90;;;;;;5163509;28;20166;-73
2021/01/15 01:58:11;;;;;;;12.25;11.25;;;-1.20;76.80;;;;;;5165057;28;20640;-73
2021/01/15 02:00:44;;;;;;;12.55;11.45;;;-1.20;76.60;;;;;;5162855;28;20050;-73
2021/01/15 02:03:16;;;;;;;11.73;10.80;;;-1.20;76.80;;;;;;5164762;28;20112;-73
2021/01/15 02:05:48;;;;;;;12.07;11.07;;;-1.20;76.70;;;;;;5164166;28;20042;-74
2021/01/15 02:08:20;;;;;;;12.25;11.25;;;-1.20;76.60;;;;;;5164507;28;20045;-74
2021/01/15 02:11:13;;;;;;;12.43;11.32;;;-1.20;76.50;;;;;;5163851;28;20046;-74
2021/01/15 02:14:00;;;;;;;11.93;10.93;;;-1.20;76.50;;;;;;5163725;28;20050;-73
2021/01/15 02:16:32;;;;;;;12.18;11.18;;;-1.20;76.40;;;;;;5161923;28;20061;-73
2021/01/15 02:19:20;;;;;;;12.27;11.27;;;-1.30;76.50;;;;;;5164696;28;20050;-74
2021/01/15 02:22:28;;;;;;;11.63;10.63;;;-1.30;76.60;;;;;;5163125;28;20140;-73
2021/01/15 02:24:59;;;;;;;12.95;11.77;;;-1.20;76.40;;;;;;5166522;28;20034;-73
2021/01/15 02:28:03;;;;;;;12.68;11.57;;;-1.30;76.50;;;;;;5150477;28;20423;-73
2021/01/15 02:30:41;;;;;;;12.50;11.38;;;-1.30;76.30;;;;;;5158523;28;20070;-73
2021/01/15 02:33:20;;;;;;;12.02;11.02;;;-1.30;76.30;;;;;;5170421;28;20062;-73
2021/01/15 02:36:17;;;;;;;12.23;11.23;;;-1.30;76.20;;;;;;5163437;28;20129;-74
2021/01/15 02:38:58;;;;;;;12.98;11.82;;;-1.30;76.30;;;;;;5166697;28;20042;-73
2021/01/15 02:41:30;;;;;;;13.57;12.32;;;-1.30;76.30;;;;;;5164760;28;20480;-74
2021/01/15 02:44:06;;;;;;;12.80;11.68;;;-1.30;76.50;;;;;;5163049;28;20041;-74
2021/01/15 02:46:40;;;;;;;12.02;11.02;;;-1.30;76.50;;;;;;5161012;28;20074;-74
2021/01/15 02:49:15;;;;;;;12.20;11.20;;;-1.30;76.30;;;;;;5165336;28;20046;-74
2021/01/15 02:51:46;;;;;;;12.70;11.50;;;-1.30;76.10;;;;;;5163563;28;20057;-74
2021/01/15 02:54:18;;;;;;;12.35;11.25;;;-1.40;76.40;;;;;;5164575;28;20076;-74
2021/01/15 02:56:49;;;;;;;12.50;11.40;;;-1.40;76.10;;;;;;5153861;28;20536;-74
2021/01/15 02:59:21;;;;;;;12.45;11.35;;;-1.40;76.60;;;;;;5162353;28;20058;-73
2021/01/15 03:02:18;;;;;;;12.88;11.77;;;-1.40;76.60;;;;;;5160259;28;20066;-74
2021/01/15 03:05:05;;;;;;;12.75;11.65;;;-1.40;76.20;;;;;;5159379;28;20058;-74
2021/01/15 03:07:38;;;;;;;12.38;11.30;;;-1.40;76.50;;;;;;5153110;28;20547;-74
2021/01/15 03:10:11;;;;;;;12.68;11.68;;;-1.50;76.50;;;;;;5162256;28;20050;-74
2021/01/15 03:12:45;;;;;;;12.68;11.57;;;-1.40;76.70;;;;;;5163438;28;20042;-74
2021/01/15 03:15:18;;;;;;;12.20;11.13;;;-1.40;76.40;;;;;;5158410;28;20617;-73
2021/01/15 03:17:51;;;;;;;13.05;11.85;;;-1.50;76.60;;;;;;5153429;28;20042;-74
2021/01/15 03:20:25;;;;;;;12.60;11.43;;;-1.50;76.60;;;;;;5161272;28;20109;-74
2021/01/15 03:22:57;;;;;;;12.60;11.50;;;-1.50;76.70;;;;;;5164201;28;20050;-74
2021/01/15 03:25:30;;;;;;;12.95;11.85;;;-1.50;76.60;;;;;;5162516;28;20169;-74
2021/01/15 03:28:01;;;;;;;12.68;11.57;;;-1.50;76.60;;;;;;5163177;28;20457;-74
2021/01/15 03:30:33;;;;;;;12.65;11.45;;;-1.50;76.40;;;;;;5161726;28;20042;-74
2021/01/15 03:33:05;;;;;;;12.55;11.45;;;-1.50;76.70;;;;;;5164190;28;20050;-74
2021/01/15 03:35:37;;;;;;;13.05;11.95;;;-1.50;76.90;;;;;;5162046;28;20104;-74
2021/01/15 03:38:10;;;;;;;12.00;11.00;;;-1.50;77.00;;;;;;5163395;28;20120;-74
2021/01/15 03:40:44;;;;;;;12.20;11.10;;;-1.50;76.70;;;;;;5166288;28;20065;-74
2021/01/15 03:43:18;;;;;;;13.35;12.15;;;-1.50;76.80;;;;;;5167206;28;20042;-74
2021/01/15 03:45:51;;;;;;;13.05;11.85;;;-1.40;76.70;;;;;;5163637;28;20195;-74
2021/01/15 03:48:23;;;;;;;12.68;11.57;;;-1.50;76.60;;;;;;5165352;28;20484;-74
2021/01/15 03:50:55;;;;;;;12.85;11.75;;;-1.40;76.70;;;;;;5162542;28;20034;-74
2021/01/15 03:53:26;;;;;;;13.32;12.23;;;-1.40;76.60;;;;;;5163958;28;20120;-74
2021/01/15 03:55:57;;;;;;;13.20;12.10;;;-1.50;76.70;;;;;;5163451;28;20097;-73
2021/01/15 03:58:29;;;;;;;12.52;11.43;;;-1.50;76.40;;;;;;5149531;28;20042;-73
2021/01/15 04:01:00;;;;;;;12.60;11.50;;;-1.50;76.70;;;;;;5166959;28;20662;-73
2021/01/15 04:03:32;;;;;;;13.00;11.80;;;-1.40;76.50;;;;;;5163686;28;20030;-73
2021/01/15 04:06:04;;;;;;;13.38;12.27;;;-1.40;76.40;;;;;;5161303;28;20874;-73
2021/01/15 04:08:36;;;;;;;12.93;11.82;;;-1.50;76.50;;;;;;5165677;28;20079;-73
2021/01/15 04:39:39;;;;;;;14.07;12.88;;;-1.90;76.60;;;;;;5261855;27;20491;-75
2021/01/15 04:42:14;;;;;;;13.82;12.52;;;-2.00;78.80;;;;;;5250164;28;20040;-75
2021/01/15 04:44:47;;;;;;;12.77;11.65;;;-1.90;78.60;;;;;;5250886;28;20064;-77
2021/01/15 04:47:20;;;;;;;13.20;12.00;;;-1.80;78.30;;;;;;5254947;28;20737;-78
2021/01/15 04:49:52;;;;;;;13.32;12.13;;;-1.80;78.10;;;;;;5255543;28;20544;-77
2021/01/15 04:52:25;;;;;;;13.15;12.00;;;-1.70;78.10;;;;;;5255959;28;20117;-76
2021/01/15 04:54:59;;;;;;;13.02;11.90;;;-1.70;77.90;;;;;;5255809;28;20048;-76
2021/01/15 04:57:35;;;;;;;13.32;12.20;;;-1.60;77.60;;;;;;5255986;28;20040;-76
2021/01/15 05:00:09;;;;;;;13.15;11.95;;;-1.60;77.50;;;;;;5237030;28;20055;-75
2021/01/15 05:02:45;;;;;;;12.93;11.80;;;-1.60;76.70;;;;;;5255681;28;20047;-74
2021/01/15 05:05:25;;;;;;;13.13;11.98;;;-1.70;76.80;;;;;;5255311;28;20056;-76
2021/01/15 05:08:13;;;;;;;13.43;12.23;;;-1.80;76.50;;;;;;5255882;28;20734;-75
2021/01/15 05:10:46;;;;;;;13.60;12.32;;;-1.80;76.80;;;;;;5255205;28;20040;-73
2021/01/15 05:13:17;;;;;;;12.80;11.70;;;-1.80;77.10;;;;;;5254838;28;20036;-76
2021/01/15 05:15:57;;;;;;;13.13;12.02;;;-1.70;76.80;;;;;;5249597;28;20044;-77
2021/01/15 05:18:32;;;;;;;14.82;13.35;;;-1.70;76.90;;;;;;5263306;28;20028;-75
2021/01/15 05:21:04;;;;;;;12.80;11.60;;;-1.70;77.40;;;;;;5253800;28;20048;-77
2021/01/15 05:23:36;;;;;;;13.40;12.10;;;-1.70;77.20;;;;;;5255830;28;20541;-75
2021/01/15 05:26:07;;;;;;;13.93;12.60;;;-1.70;76.70;;;;;;5254708;28;20131;-76
2021/01/15 05:28:43;;;;;;;13.50;12.30;;;-1.70;77.00;;;;;;5252692;28;20028;-75
2021/01/15 05:31:15;;;;;;;13.77;12.52;;;-1.60;77.00;;;;;;5253795;28;20384;-76
2021/01/15 05:34:08;;;;;;;13.35;12.05;;;-1.60;76.90;;;;;;5255636;28;20120;-79
2021/01/15 05:36:40;;;;;;;12.93;11.82;;;-1.60;76.90;;;;;;5254320;28;20062;-77
2021/01/15 05:39:25;;;;;;;12.75;11.65;;;-1.60;76.80;;;;;;5248786;28;20149;-79
2021/01/15 05:41:58;;;;;;;12.98;11.77;;;-1.60;76.70;;;;;;5222329;28;20044;-79
2021/01/15 05:44:32;;;;;;;13.13;12.02;;;-1.70;76.30;;;;;;5223797;28;20416;-79
2021/01/15 05:47:04;;;;;;;13.23;12.13;;;-1.70;76.50;;;;;;5221570;28;20990;-80
2021/01/15 05:49:35;;;;;;;13.52;12.32;;;-1.70;76.70;;;;;;5240612;28;20045;-77
2021/01/15 05:52:07;;;;;;;13.63;12.43;;;-1.70;76.50;;;;;;5222146;28;20052;-77
2021/01/15 05:54:39;;;;;;;12.90;11.70;;;-1.70;76.60;;;;;;5237543;28;20086;-77
2021/01/15 05:57:25;;;;;;;12.88;11.68;;;-1.70;76.60;;;;;;5237077;28;20457;-80
2021/01/15 05:59:56;;;;;;;13.63;12.43;;;-1.70;76.40;;;;;;5235538;28;20048;-80
2021/01/15 06:02:29;;;;;;;14.73;13.38;;;-1.80;76.40;;;;;;5235964;28;20058;-82
2021/01/15 06:05:01;;;;;;;14.25;12.95;;;-1.70;76.50;;;;;;5228413;28;20064;-80
2021/01/15 06:07:32;;;;;;;14.00;12.70;;;-1.70;76.30;;;;;;5215642;28;20044;-78
2021/01/15 06:10:04;;;;;;;13.80;12.43;;;-1.70;76.10;;;;;;5239903;28;20107;-79
2021/01/15 06:12:42;;;;;;;13.60;12.32;;;-1.80;76.30;;;;;;5239852;28;20819;-76
2021/01/15 06:15:15;;;;;;;14.07;12.80;;;-1.80;76.10;;;;;;5238097;28;20499;-78
2021/01/15 06:17:53;;;;;;;14.35;12.95;;;-1.80;76.50;;;;;;5238317;28;20526;-77
2021/01/15 06:20:24;;;;;;;13.68;12.38;;;-1.80;76.50;;;;;;5236786;28;20071;-78
2021/01/15 06:22:59;;;;;;;14.23;12.88;;;-1.80;76.50;;;;;;5236473;28;20041;-77
2021/01/15 06:25:35;;;;;;;13.63;12.30;;;-1.80;77.10;;;;;;5235990;28;20082;-79
2021/01/15 06:28:07;;;;;;;13.85;12.43;;;-1.80;76.60;;;;;;5235693;28;20125;-77
2021/01/15 06:30:38;;;;;;;14.35;13.05;;;-1.80;76.00;;;;;;5233989;28;20029;-77
2021/01/15 06:33:11;;;;;;;14.77;13.32;;;-1.80;76.50;;;;;;5237413;28;20049;-79
2021/01/15 06:35:46;;;;;;;14.40;13.00;;;-1.80;76.20;;;;;;5238131;28;20037;-79
2021/01/15 06:38:19;;;;;;;14.82;13.32;;;-1.80;76.50;;;;;;5237317;28;20072;-79
2021/01/15 06:40:51;;;;;;;14.70;13.25;;;-1.80;76.40;;;;;;5237359;28;20111;-78
2021/01/15 06:43:31;;;;;;;14.77;13.27;;;-1.80;76.40;;;;;;5237891;28;20044;-79
2021/01/15 06:46:06;;;;;;;14.85;13.38;;;-1.80;76.10;;;;;;5232912;28;20049;-78
2021/01/15 06:48:39;;;;;;;14.27;12.88;;;-1.80;76.50;;;;;;5235836;28;20162;-76
2021/01/15 06:51:11;;;;;;;14.50;13.10;;;-1.80;76.20;;;;;;5237040;28;20091;-77
2021/01/15 06:53:43;;;;;;;14.40;13.00;;;-1.80;76.10;;;;;;5233874;28;20041;-77
2021/01/15 06:56:18;;;;;;;13.77;12.55;;;-1.80;76.30;;;;;;5238264;28;20050;-78
2021/01/15 06:58:58;;;;;;;14.45;12.95;;;-1.80;76.30;;;;;;5234811;28;20056;-79
2021/01/15 07:01:44;;;;;;;14.55;13.15;;;-1.80;76.40;;;;;;5236858;28;20044;-76
2021/01/15 07:04:27;;;;;;;13.93;12.40;;;-1.80;76.20;;;;;;5253499;28;20040;-77
2021/01/15 07:07:13;;;;;;;14.73;13.32;;;-1.80;76.00;;;;;;5235919;28;20047;-78
2021/01/15 07:09:47;;;;;;;14.30;12.90;;;-1.80;76.00;;;;;;5235489;28;20040;-80
2021/01/15 07:12:21;;;;;;;14.05;12.75;;;-1.80;76.80;;;;;;5220888;28;20036;-81
2021/01/15 07:14:56;;;;;;;15.70;14.20;;;-1.80;76.20;;;;;;5235795;28;20596;-78
2021/01/15 07:17:33;;;;;;;14.15;12.73;;;-1.80;75.80;;;;;;5235468;28;20033;-80
2021/01/15 07:20:11;;;;;;;14.55;13.10;;;-1.80;76.00;;;;;;5238072;28;20049;-79
2021/01/15 07:22:51;;;;;;;14.40;12.98;;;-1.80;76.10;;;;;;5238315;28;20071;-79
2021/01/15 07:25:23;;;;;;;14.68;13.18;;;-1.80;75.90;;;;;;5239785;28;20051;-77
2021/01/15 07:27:59;;;;;;;16.33;14.45;;;-1.80;75.80;;;;;;5241648;28;20070;-79
2021/01/15 07:30:31;;;;;;;17.63;15.35;;;-1.80;75.90;;;;;;5240605;28;20047;-79
2021/01/15 07:33:07;;;;;;;21.10;17.38;;;-1.70;76.00;;;;;;5237156;28;20049;-78
2021/01/15 07:35:39;;;;;;;15.82;14.18;;;-1.70;75.70;;;;;;5235114;28;20040;-79
2021/01/15 07:38:12;;;;;;;16.27;13.60;;;-1.70;75.50;;;;;;5240028;28;20036;-77
2021/01/15 07:40:44;;;;;;;13.85;12.45;;;-1.70;75.00;;;;;;5233217;28;20076;-79
2021/01/15 07:43:30;;;;;;;14.43;12.98;;;-1.70;75.20;;;;;;5255096;28;20071;-77
2021/01/15 07:46:08;;;;;;;14.95;13.30;;;-1.70;75.00;;;;;;5235638;28;20045;-77
2021/01/15 07:49:00;;;;;;;15.38;13.88;;;-1.70;75.00;;;;;;5239624;28;20040;-79
2021/01/15 07:51:32;;;;;;;15.75;14.10;;;-1.70;74.90;;;;;;5236754;28;20047;-80
2021/01/15 07:54:04;;;;;;;14.38;12.88;;;-1.70;74.90;;;;;;5236878;28;20049;-81
2021/01/15 07:56:35;;;;;;;14.52;13.02;;;-1.70;75.00;;;;;;5235099;28;20292;-78
2021/01/15 07:59:07;;;;;;;15.10;13.63;;;-1.70;74.20;;;;;;5238459;28;20044;-78
2021/01/15 08:01:43;;;;;;;15.25;13.65;;;-1.70;74.30;;;;;;5221160;28;20114;-77
2021/01/15 08:04:16;;;;;;;15.13;13.52;;;-1.60;74.20;;;;;;5240497;28;20040;-77
2021/01/15 08:06:47;;;;;;;15.23;13.63;;;-1.60;73.50;;;;;;5236957;28;20415;-77
2021/01/15 08:09:19;;;;;;;14.98;13.48;;;-1.60;72.90;;;;;;5235150;28;20044;-78
2021/01/15 08:11:57;;;;;;;13.93;12.57;;;-1.60;73.90;;;;;;5234891;28;20040;-75
2021/01/15 08:14:31;;;;;;;14.18;12.77;;;-1.60;73.90;;;;;;5219267;28;20048;-74
2021/01/15 08:17:11;;;;;;;14.40;13.00;;;-1.50;73.80;;;;;;5236166;28;20058;-74
2021/01/15 08:19:43;;;;;;;13.93;12.52;;;-1.50;72.40;;;;;;5235488;28;20139;-74
2021/01/15 08:22:15;;;;;;;14.25;12.85;;;-1.50;73.10;;;;;;5232430;28;20784;-75
2021/01/15 08:24:48;;;;;;;14.27;12.88;;;-1.40;73.00;;;;;;5236304;28;20411;-77
2021/01/15 08:27:21;;;;;;;14.20;12.70;;;-1.40;72.50;;;;;;5236515;28;20125;-74
2021/01/15 08:30:06;;;;;;;14.95;13.30;;;-1.30;72.60;;;;;;5234499;28;20577;-76
2021/01/15 08:32:40;;;;;;;15.55;14.05;;;-1.30;72.00;;;;;;5235367;28;20059;-74
2021/01/15 08:35:26;;;;;;;15.30;13.88;;;-1.20;72.70;;;;;;5243296;28;20036;-74
2021/01/15 08:38:05;;;;;;;14.30;12.88;;;-1.20;70.80;;;;;;5233817;28;20109;-75
2021/01/15 08:40:39;;;;;;;14.13;12.73;;;-1.20;71.80;;;;;;5214919;28;20045;-75
2021/01/15 08:43:11;;;;;;;14.95;13.55;;;-1.10;72.50;;;;;;5229792;28;20071;-76
2021/01/15 08:45:42;;;;;;;14.27;12.98;;;-1.00;71.80;;;;;;5235615;28;20068;-74
2021/01/15 08:48:14;;;;;;;15.30;13.80;;;-1.00;70.90;;;;;;5235667;28;20059;-76
2021/01/15 08:50:46;;;;;;;15.30;13.80;;;-0.90;71.20;;;;;;5235792;28;20048;-77
2021/01/15 08:53:18;;;;;;;14.27;12.82;;;-0.90;71.10;;;;;;5237429;28;20071;-76
2021/01/15 08:55:55;;;;;;;15.45;13.85;;;-0.80;70.90;;;;;;5236578;28;20094;-75
2021/01/15 08:58:28;;;;;;;15.75;14.10;;;-0.80;70.70;;;;;;5235411;28;20114;-72
2021/01/15 09:00:59;;;;;;;15.40;13.80;;;-0.80;70.60;;;;;;5233203;28;20048;-73
2021/01/15 09:03:32;;;;;;;15.57;14.05;;;-0.70;70.30;;;;;;5236179;28;20111;-75
2021/01/15 09:06:06;;;;;;;14.27;12.90;;;-0.60;70.30;;;;;;5236070;28;20122;-76
2021/01/15 09:08:38;;;;;;;14.60;13.07;;;-0.60;70.10;;;;;;5235559;28;20105;-77
2021/01/15 09:11:11;;;;;;;14.35;12.95;;;-0.50;70.00;;;;;;5235982;28;20094;-74
2021/01/15 09:13:42;;;;;;;14.45;13.10;;;-0.50;69.70;;;;;;5233883;28;20055;-74
2021/01/15 09:16:17;;;;;;;15.18;13.70;;;-0.40;69.80;;;;;;5240552;28;20045;-74
2021/01/15 09:18:53;;;;;;;14.90;13.20;;;-0.40;68.80;;;;;;5241342;28;20044;-78
2021/01/15 09:21:25;;;;;;;16.08;14.48;;;-0.40;69.50;;;;;;5255197;28;20044;-77
2021/01/15 09:24:01;;;;;;;15.70;14.15;;;-0.30;69.30;;;;;;5231665;28;20060;-76
2021/01/15 09:26:34;;;;;;;14.40;13.02;;;-0.40;69.20;;;;;;5241225;28;20109;-78
2021/01/15 09:29:06;;;;;;;15.88;14.32;;;-0.40;68.50;;;;;;5243930;28;20048;-76
2021/01/15 09:31:39;;;;;;;15.40;13.80;;;-0.40;69.10;;;;;;5237678;28;20049;-80
2021/01/15 09:34:12;;;;;;;14.65;13.25;;;-0.40;67.50;;;;;;5239440;28;20044;-80
2021/01/15 09:36:46;;;;;;;15.43;13.73;;;-0.40;68.50;;;;;;5240730;28;20623;-79
2021/01/15 09:39:19;;;;;;;14.85;13.45;;;-0.30;67.40;;;;;;5253695;28;20051;-80
2021/01/15 09:41:52;;;;;;;15.23;13.88;;;-0.30;67.60;;;;;;5240983;28;20438;-79
2021/01/15 09:44:28;;;;;;;14.65;13.32;;;-0.20;67.00;;;;;;5242498;28;20032;-80
2021/01/15 09:47:02;;;;;;;15.65;14.05;;;-0.10;66.40;;;;;;5239438;28;20040;-78
2021/01/15 09:49:34;;;;;;;14.55;13.18;;;-0.10;66.30;;;;;;5241335;28;20056;-80
2021/01/15 09:52:05;;;;;;;15.10;13.60;;;-0.10;66.00;;;;;;5240153;28;20138;-78
2021/01/15 09:54:40;;;;;;;15.10;13.48;;;-0.10;64.70;;;;;;5242130;28;20033;-79
2021/01/15 09:57:11;;;;;;;14.45;13.15;;;-0.10;65.50;;;;;;5236358;28;20040;-80
2021/01/15 09:59:42;;;;;;;14.93;13.52;;;0.00;64.60;;;;;;5221729;28;20051;-78
2021/01/15 10:02:14;;;;;;;15.90;14.30;;;0.10;64.90;;;;;;5240758;28;20051;-79
2021/01/15 10:04:46;;;;;;;14.73;13.43;;;0.30;65.40;;;;;;5239496;28;20044;-81
2021/01/15 10:07:17;;;;;;;15.52;14.02;;;0.30;63.60;;;;;;5240557;28;20105;-80
2021/01/15 10:09:49;;;;;;;15.35;13.90;;;0.30;63.50;;;;;;5240680;28;20032;-81
2021/01/15 10:12:20;;;;;;;16.52;14.82;;;0.20;64.40;;;;;;5241597;28;20048;-80
2021/01/15 10:14:51;;;;;;;16.30;14.73;;;0.30;64.20;;;;;;5239945;28;20040;-82
2021/01/15 10:17:23;;;;;;;15.43;13.93;;;0.50;63.00;;;;;;5233735;28;20414;-81
2021/01/15 10:19:55;;;;;;;15.15;13.75;;;0.60;63.50;;;;;;5235637;28;20470;-81
2021/01/15 10:22:30;;;;;;;15.15;13.75;;;0.70;63.90;;;;;;5232301;28;20398;-77
2021/01/15 10:25:02;;;;;;;15.57;14.07;;;0.90;63.90;;;;;;5238217;28;20044;-78
2021/01/15 10:27:35;;;;;;;15.90;14.40;;;1.00;61.50;;;;;;5237442;28;20462;-80
2021/01/15 10:30:07;;;;;;;15.20;13.88;;;1.00;62.90;;;;;;5234835;28;20044;-74
2021/01/15 10:32:38;;;;;;;15.57;14.25;;;1.10;63.10;;;;;;5235010;28;20071;-78
2021/01/15 10:35:10;;;;;;;17.27;15.77;;;1.20;62.40;;;;;;5234881;28;20063;-79
2021/01/15 10:37:42;;;;;;;18.08;16.48;;;1.30;61.50;;;;;;5235036;28;20422;-77
2021/01/15 10:40:14;;;;;;;17.50;15.98;;;1.30;62.50;;;;;;5236800;28;20047;-79
2021/01/15 10:42:46;;;;;;;17.52;16.02;;;1.30;62.60;;;;;;5238171;28;20033;-76
2021/01/15 10:45:18;;;;;;;17.35;15.77;;;1.30;62.00;;;;;;5237742;28;20123;-78
2021/01/15 10:47:49;;;;;;;16.65;15.07;;;1.20;61.70;;;;;;5237502;28;20036;-78
2021/01/15 10:50:21;;;;;;;21.13;18.10;;;1.10;61.80;;;;;;5237864;28;20044;-75
2021/01/15 10:52:53;;;;;;;22.30;18.75;;;1.10;62.80;;;;;;5234001;28;20051;-76
2021/01/15 10:55:26;;;;;;;18.23;16.52;;;1.00;62.00;;;;;;5234574;28;20044;-77
2021/01/15 10:57:57;;;;;;;17.35;15.90;;;1.00;62.10;;;;;;5237583;28;20051;-80
2021/01/15 11:00:29;;;;;;;17.13;15.65;;;1.00;62.10;;;;;;5237701;28;20392;-76
2021/01/15 11:03:00;;;;;;;16.58;14.98;;;1.10;62.30;;;;;;5236771;28;20056;-76
2021/01/15 11:05:32;;;;;;;16.98;15.52;;;1.00;61.30;;;;;;5235482;28;20133;-79
2021/01/15 11:08:04;;;;;;;16.83;15.32;;;1.00;62.00;;;;;;5237720;28;20557;-77
2021/01/15 11:10:35;;;;;;;16.80;15.38;;;0.90;62.30;;;;;;5235220;28;20067;-77
2021/01/15 11:13:07;;;;;;;16.45;14.95;;;0.90;62.00;;;;;;5233079;28;20041;-76
2021/01/15 11:15:39;;;;;;;15.98;14.68;;;1.00;62.60;;;;;;5236312;28;20040;-76
2021/01/15 11:18:10;;;;;;;16.35;14.95;;;1.00;62.90;;;;;;5225791;28;20127;-75
2021/01/15 11:20:46;;;;;;;16.40;14.93;;;1.10;62.20;;;;;;5214944;28;20113;-76
2021/01/15 11:23:20;;;;;;;16.83;15.32;;;1.10;62.30;;;;;;5238365;28;20040;-78
2021/01/15 11:25:51;;;;;;;16.42;15.00;;;1.10;62.00;;;;;;5216120;28;20040;-78
2021/01/15 11:28:28;;;;;;;15.85;14.45;;;1.20;61.60;;;;;;5235013;28;20040;-79
2021/01/15 11:31:00;;;;;;;16.73;15.32;;;1.20;61.90;;;;;;5230171;28;20753;-76
2021/01/15 11:33:32;;;;;;;15.93;14.63;;;1.30;62.10;;;;;;5235185;28;20415;-78
2021/01/15 11:36:09;;;;;;;16.08;14.70;;;0.90;62.50;;;;;;5234909;28;20049;-79
2021/01/15 11:38:42;;;;;;;15.88;14.57;;;0.90;62.30;;;;;;5237232;28;20066;-78
2021/01/15 11:41:15;;;;;;;15.93;14.63;;;1.00;61.70;;;;;;5234122;28;20063;-78
2021/01/15 11:43:46;;;;;;;16.27;14.88;;;1.00;62.10;;;;;;5234539;28;20067;-78
2021/01/15 11:46:18;;;;;;;16.20;14.80;;;1.10;62.00;;;;;;5236070;28;20533;-79
2021/01/15 11:48:53;;;;;;;16.25;14.80;;;1.00;62.40;;;;;;5236704;28;20033;-77
2021/01/15 11:51:25;;;;;;;21.02;19.23;;;1.10;62.30;;;;;;5234829;28;20594;-77
2021/01/15 11:53:57;;;;;;;16.33;14.95;;;1.20;61.10;;;;;;5237947;28;20044;-78
2021/01/15 11:56:28;;;;;;;16.60;15.20;;;1.30;61.20;;;;;;5237476;28;20415;-78
2021/01/15 11:58:59;;;;;;;17.58;16.08;;;1.30;61.00;;;;;;5237375;28;20071;-76
2021/01/15 12:01:31;;;;;;;16.30;14.85;;;1.40;61.10;;;;;;5235302;28;20392;-79
2021/01/15 12:04:02;;;;;;;16.08;14.68;;;1.40;60.30;;;;;;5236337;28;20504;-79
2021/01/15 12:06:34;;;;;;;16.10;14.60;;;1.40;60.20;;;;;;5231728;28;20593;-79
2021/01/15 12:09:05;;;;;;;15.57;14.18;;;1.30;60.10;;;;;;5235425;28;20055;-78
2021/01/15 12:11:37;;;;;;;15.70;14.38;;;1.30;60.60;;;;;;5236306;28;20037;-79
2021/01/15 12:14:09;;;;;;;15.90;14.32;;;1.30;59.70;;;;;;5234799;28;20454;-78
2021/01/15 12:16:41;;;;;;;16.23;14.90;;;1.30;60.10;;;;;;5225392;28;20437;-79
2021/01/15 12:19:12;;;;;;;15.75;14.32;;;1.30;59.80;;;;;;5240944;28;20067;-78
2021/01/15 12:21:46;;;;;;;15.70;14.40;;;1.20;60.50;;;;;;5233510;28;20124;-78
2021/01/15 12:24:18;;;;;;;15.48;14.10;;;1.20;60.00;;;;;;5235094;28;20070;-80
2021/01/15 12:26:49;;;;;;;16.15;14.65;;;1.30;60.70;;;;;;5224795;28;20126;-79
2021/01/15 12:29:21;;;;;;;16.02;14.52;;;1.30;59.40;;;;;;5234585;28;20098;-78
2021/01/15 12:31:56;;;;;;;15.60;14.30;;;1.30;60.80;;;;;;5233606;28;20451;-79
2021/01/15 12:34:28;;;;;;;16.35;14.95;;;1.30;60.30;;;;;;5235651;28;20052;-81
2021/01/15 12:36:59;;;;;;;16.92;15.18;;;1.30;60.70;;;;;;5235222;28;20045;-79
2021/01/15 12:39:31;;;;;;;15.95;14.55;;;1.20;59.40;;;;;;5235796;28;20048;-78
2021/01/15 12:42:02;;;;;;;16.73;15.13;;;1.20;60.80;;;;;;5235457;28;20664;-77
2021/01/15 12:44:34;;;;;;;16.35;14.85;;;1.10;60.30;;;;;;5234006;28;20052;-81
2021/01/15 12:47:05;;;;;;;16.17;14.77;;;1.10;60.30;;;;;;5231154;28;20044;-77
2021/01/15 12:49:37;;;;;;;16.08;14.57;;;1.00;59.00;;;;;;5227351;28;20133;-78
2021/01/15 12:52:08;;;;;;;16.20;14.80;;;0.80;60.60;;;;;;5237417;28;20098;-81
2021/01/15 12:54:40;;;;;;;17.35;15.75;;;0.80;61.10;;;;;;5239530;28;20044;-81
2021/01/15 12:57:11;;;;;;;16.02;14.52;;;0.60;60.90;;;;;;5231151;28;20098;-79
2021/01/15 12:59:43;;;;;;;16.08;14.50;;;0.60;61.80;;;;;;5221689;28;20459;-79
2021/01/15 13:02:14;;;;;;;15.93;14.27;;;0.70;61.80;;;;;;5239323;28;20101;-81
2021/01/15 13:04:46;;;;;;;15.40;14.00;;;0.60;60.70;;;;;;5238524;28;20449;-78
2021/01/15 13:07:17;;;;;;;16.25;14.77;;;0.50;60.60;;;;;;5239634;28;20076;-74
2021/01/15 13:09:49;;;;;;;15.50;14.10;;;0.30;61.90;;;;;;5238181;28;20090;-72
2021/01/15 13:12:22;;;;;;;16.35;14.85;;;0.30;62.40;;;;;;5233220;28;20442;-71
2021/01/15 13:14:54;;;;;;;16.02;14.60;;;0.30;61.70;;;;;;5237901;28;20454;-73
2021/01/15 13:17:25;;;;;;;16.25;14.75;;;0.20;61.20;;;;;;5231598;28;20450;-72
2021/01/15 13:19:57;;;;;;;15.60;14.20;;;0.10;62.70;;;;;;5236204;28;20064;-70
2021/01/15 13:22:28;;;;;;;15.80;14.30;;;0.10;62.30;;;;;;5236792;28;20545;-70
2021/01/15 13:24:59;;;;;;;16.20;14.60;;;0.00;62.20;;;;;;5239101;28;20048;-69
2021/01/15 13:27:31;;;;;;;15.35;13.82;;;-0.10;62.50;;;;;;5237693;28;20045;-69
2021/01/15 13:30:03;;;;;;;16.10;14.35;;;-0.10;62.90;;;;;;5220711;28;20041;-71
2021/01/15 13:32:54;;;;;;;15.70;14.20;;;-0.10;63.10;;;;;;5238880;28;20516;-71